Time,TemperatureF,DewpointF,PressureIn,WindDirection,WindDirectionDegrees,WindSpeedMPH,WindSpeedGustMPH,Humidity,HourlyPrecipIn,Conditions,Clouds,dailyrainin,SolarRadiationWatts/m^2,SoftwareType,DateUTC
2013-07-01 00:02:00,59.0,41.0,-100.00,NNE,13,7.0,11.0,51,0.00,,,0.00,0.000000,,2013-07-01 06:02:00,
2013-07-01 00:43:00,60.0,37.0,-100.00,North,3,6.0,15.0,42,0.00,,,0.00,0.000000,,2013-07-01 06:43:00,
2013-07-01 00:53:00,60.0,37.0,-100.00,North,3,6.0,15.0,42,0.00,,,0.00,0.000000,,2013-07-01 06:53:00,
2013-07-01 01:01:00,60.0,37.0,-100.00,North,3,6.0,15.0,42,0.00,,,0.00,0.000000,,2013-07-01 07:01:00,
2013-07-01 01:11:00,60.0,37.0,-100.00,North,3,6.0,15.0,42,0.00,,,0.00,0.000000,,2013-07-01 07:11:00,
2013-07-01 01:43:00,59.0,37.0,-100.00,North,354,4.0,14.0,44,0.00,,,0.00,0.000000,,2013-07-01 07:43:00,
2013-07-01 01:53:00,59.0,37.0,-100.00,North,354,4.0,14.0,44,0.00,,,0.00,0.000000,,2013-07-01 07:53:00,
2013-07-01 02:01:00,59.0,37.0,-100.00,North,354,4.0,14.0,44,0.00,,,0.00,0.000000,,2013-07-01 08:01:00,
2013-07-01 02:11:00,59.0,37.0,-100.00,North,354,4.0,14.0,44,0.00,,,0.00,0.000000,,2013-07-01 08:11:00,
2013-07-01 02:43:00,56.0,40.0,-100.00,SSE,155,6.0,9.0,54,0.00,,,0.00,0.000000,,2013-07-01 08:43:00,
2013-07-01 02:52:00,56.0,40.0,-100.00,SSE,155,6.0,9.0,54,0.00,,,0.00,0.000000,,2013-07-01 08:52:00,
2013-07-01 03:02:00,56.0,40.0,-100.00,SSE,155,6.0,9.0,54,0.00,,,0.00,0.000000,,2013-07-01 09:02:00,
2013-07-01 03:11:00,56.0,40.0,-100.00,SSE,155,6.0,9.0,54,0.00,,,0.00,0.000000,,2013-07-01 09:11:00,
2013-07-01 03:43:00,56.0,38.0,-100.00,South,191,8.0,11.0,51,0.00,,,0.00,0.000000,,2013-07-01 09:43:00,
2013-07-01 03:53:00,56.0,38.0,-100.00,South,191,8.0,11.0,51,0.00,,,0.00,0.000000,,2013-07-01 09:53:00,
2013-07-01 04:03:00,56.0,38.0,-100.00,South,191,8.0,11.0,51,0.00,,,0.00,0.000000,,2013-07-01 10:03:00,
2013-07-01 04:11:00,56.0,38.0,-100.00,South,191,8.0,11.0,51,0.00,,,0.00,0.000000,,2013-07-01 10:11:00,
2013-07-01 04:43:00,56.0,40.0,-100.00,South,172,7.0,11.0,55,0.00,,,0.00,0.000000,,2013-07-01 10:43:00,
2013-07-01 04:52:00,56.0,40.0,-100.00,South,172,7.0,11.0,55,0.00,,,0.00,0.000000,,2013-07-01 10:52:00,
2013-07-01 05:02:00,56.0,40.0,-100.00,South,172,7.0,11.0,55,0.00,,,0.00,0.000000,,2013-07-01 11:02:00,
2013-07-01 05:11:00,56.0,40.0,-100.00,South,172,7.0,11.0,55,0.00,,,0.00,0.000000,,2013-07-01 11:11:00,
2013-07-01 05:33:00,54.0,40.0,-100.00,ESE,112,4.0,9.0,58,0.00,,,0.00,0.000000,,2013-07-01 11:33:00,
2013-07-01 05:43:00,54.0,40.0,-100.00,ESE,112,4.0,9.0,58,0.00,,,0.00,0.000000,,2013-07-01 11:43:00,
2013-07-01 05:52:00,54.0,40.0,-100.00,ESE,112,4.0,9.0,58,0.00,,,0.00,0.000000,,2013-07-01 11:52:00,
2013-07-01 06:01:00,54.0,40.0,-100.00,ESE,112,4.0,9.0,58,0.00,,,0.00,0.000000,,2013-07-01 12:01:00,
2013-07-01 06:11:00,54.0,40.0,-100.00,ESE,112,4.0,9.0,58,0.00,,,0.00,0.000000,,2013-07-01 12:11:00,
2013-07-01 06:12:00,53.0,40.0,-100.00,NNE,19,4.0,5.0,62,0.00,,,0.00,2.000000,,2013-07-01 12:12:00,
2013-07-01 06:33:00,53.0,40.0,-100.00,NNE,19,4.0,5.0,62,0.00,,,0.00,2.000000,,2013-07-01 12:33:00,
2013-07-01 06:43:00,53.0,40.0,-100.00,NNE,19,4.0,5.0,62,0.00,,,0.00,2.000000,,2013-07-01 12:43:00,
2013-07-01 06:53:00,53.0,40.0,-100.00,NNE,19,4.0,5.0,62,0.00,,,0.00,2.000000,,2013-07-01 12:53:00,
2013-07-01 07:01:00,53.0,40.0,-100.00,NNE,19,4.0,5.0,62,0.00,,,0.00,2.000000,,2013-07-01 13:01:00,
2013-07-01 07:43:00,55.0,41.0,-100.00,North,350,5.0,8.0,60,0.00,,,0.00,58.000000,,2013-07-01 13:43:00,
2013-07-01 07:53:00,55.0,41.0,-100.00,North,350,5.0,8.0,60,0.00,,,0.00,58.000000,,2013-07-01 13:53:00,
2013-07-01 08:01:00,55.0,41.0,-100.00,North,350,5.0,8.0,60,0.00,,,0.00,58.000000,,2013-07-01 14:01:00,
2013-07-01 08:11:00,55.0,41.0,-100.00,North,350,5.0,8.0,60,0.00,,,0.00,58.000000,,2013-07-01 14:11:00,
2013-07-01 08:34:00,62.0,43.0,-100.00,SW,225,3.0,7.0,50,0.00,,,0.00,273.000000,,2013-07-01 14:34:00,
2013-07-01 08:43:00,62.0,43.0,-100.00,SW,225,3.0,7.0,50,0.00,,,0.00,273.000000,,2013-07-01 14:43:00,
2013-07-01 08:53:00,62.0,43.0,-100.00,SW,225,3.0,7.0,50,0.00,,,0.00,273.000000,,2013-07-01 14:53:00,
2013-07-01 09:02:00,62.0,43.0,-100.00,SW,225,3.0,7.0,50,0.00,,,0.00,273.000000,,2013-07-01 15:02:00,
2013-07-01 09:11:00,62.0,43.0,-100.00,SW,225,3.0,7.0,50,0.00,,,0.00,273.000000,,2013-07-01 15:11:00,
2013-07-01 09:43:00,65.0,44.0,-100.00,South,169,5.0,10.0,47,0.00,,,0.00,457.000000,,2013-07-01 15:43:00,
2013-07-01 09:53:00,65.0,44.0,-100.00,South,169,5.0,10.0,47,0.00,,,0.00,457.000000,,2013-07-01 15:53:00,
2013-07-01 10:01:00,65.0,44.0,-100.00,South,169,5.0,10.0,47,0.00,,,0.00,457.000000,,2013-07-01 16:01:00,
2013-07-01 10:11:00,65.0,44.0,-100.00,South,169,5.0,10.0,47,0.00,,,0.00,457.000000,,2013-07-01 16:11:00,
2013-07-01 10:12:00,69.0,44.0,-100.00,South,178,5.0,10.0,40,0.00,,,-99.99,632.000000,,2013-07-01 16:12:00,
2013-07-01 10:33:00,69.0,44.0,-100.00,South,178,5.0,10.0,40,0.00,,,-99.99,632.000000,,2013-07-01 16:33:00,
2013-07-01 10:44:00,69.0,44.0,-100.00,South,178,5.0,10.0,40,0.00,,,-99.99,632.000000,,2013-07-01 16:44:00,
2013-07-01 10:53:00,69.0,44.0,-100.00,South,178,5.0,10.0,40,0.00,,,-99.99,632.000000,,2013-07-01 16:53:00,
2013-07-01 11:02:00,69.0,44.0,-100.00,South,178,5.0,10.0,40,0.00,,,-99.99,632.000000,,2013-07-01 17:02:00,
2013-07-01 11:34:00,75.0,45.0,-100.00,SSW,206,5.0,9.0,35,0.00,,,0.00,778.000000,,2013-07-01 17:34:00,
2013-07-01 11:43:00,75.0,45.0,-100.00,SSW,206,5.0,9.0,35,0.00,,,0.00,778.000000,,2013-07-01 17:43:00,
2013-07-01 11:53:00,75.0,45.0,-100.00,SSW,206,5.0,9.0,35,0.00,,,0.00,778.000000,,2013-07-01 17:53:00,
2013-07-01 12:02:00,75.0,45.0,-100.00,SSW,206,5.0,9.0,35,0.00,,,0.00,778.000000,,2013-07-01 18:02:00,
2013-07-01 12:11:00,75.0,45.0,-100.00,SSW,206,5.0,9.0,35,0.00,,,0.00,778.000000,,2013-07-01 18:11:00,
2013-07-01 12:44:00,78.0,44.0,-100.00,South,170,8.0,16.0,30,0.00,,,0.00,879.000000,,2013-07-01 18:44:00,
2013-07-01 12:53:00,78.0,44.0,-100.00,South,170,8.0,16.0,30,0.00,,,0.00,879.000000,,2013-07-01 18:53:00,
2013-07-01 13:02:00,78.0,44.0,-100.00,South,170,8.0,16.0,30,0.00,,,0.00,879.000000,,2013-07-01 19:02:00,
2013-07-01 13:11:00,78.0,44.0,-100.00,South,170,8.0,16.0,30,0.00,,,0.00,879.000000,,2013-07-01 19:11:00,
2013-07-01 13:44:00,80.0,41.0,-100.00,SSW,198,6.0,15.0,25,0.00,,,0.00,937.000000,,2013-07-01 19:44:00,
2013-07-01 13:53:00,80.0,41.0,-100.00,SSW,198,6.0,15.0,25,0.00,,,0.00,937.000000,,2013-07-01 19:53:00,
2013-07-01 14:02:00,80.0,41.0,-100.00,SSW,198,6.0,15.0,25,0.00,,,0.00,937.000000,,2013-07-01 20:02:00,
2013-07-01 14:11:00,80.0,41.0,-100.00,SSW,198,6.0,15.0,25,0.00,,,0.00,937.000000,,2013-07-01 20:11:00,
2013-07-01 14:34:00,77.0,36.0,-100.00,WNW,285,6.0,13.0,23,0.00,,,0.00,768.000000,,2013-07-01 20:34:00,
2013-07-01 14:43:00,77.0,36.0,-100.00,WNW,285,6.0,13.0,23,0.00,,,0.00,768.000000,,2013-07-01 20:43:00,
2013-07-01 14:52:00,77.0,36.0,-100.00,WNW,285,6.0,13.0,23,0.00,,,0.00,768.000000,,2013-07-01 20:52:00,
2013-07-01 15:01:00,77.0,36.0,-100.00,WNW,285,6.0,13.0,23,0.00,,,0.00,768.000000,,2013-07-01 21:01:00,
2013-07-01 15:11:00,77.0,36.0,-100.00,WNW,285,6.0,13.0,23,0.00,,,0.00,768.000000,,2013-07-01 21:11:00,
2013-07-01 15:44:00,81.0,39.0,-100.00,SSW,211,6.0,16.0,22,0.00,,,0.00,723.000000,,2013-07-01 21:44:00,
2013-07-01 15:53:00,81.0,39.0,-100.00,SSW,211,6.0,16.0,22,0.00,,,0.00,723.000000,,2013-07-01 21:53:00,
2013-07-01 16:01:00,81.0,39.0,-100.00,SSW,211,6.0,16.0,22,0.00,,,0.00,723.000000,,2013-07-01 22:01:00,
2013-07-01 16:11:00,81.0,39.0,-100.00,SSW,211,6.0,16.0,22,0.00,,,0.00,723.000000,,2013-07-01 22:11:00,
2013-07-01 16:43:00,81.0,41.0,-100.00,NW,312,7.0,15.0,24,0.00,,,0.00,587.000000,,2013-07-01 22:43:00,
2013-07-01 16:53:00,81.0,41.0,-100.00,NW,312,7.0,15.0,24,0.00,,,0.00,587.000000,,2013-07-01 22:53:00,
2013-07-01 17:01:00,81.0,41.0,-100.00,NW,312,7.0,15.0,24,0.00,,,0.00,587.000000,,2013-07-01 23:01:00,
2013-07-01 17:11:00,81.0,41.0,-100.00,NW,312,7.0,15.0,24,0.00,,,0.00,587.000000,,2013-07-01 23:11:00,
2013-07-01 17:12:00,77.0,40.0,-100.00,NNW,340,5.0,17.0,27,0.00,,,0.00,237.000000,,2013-07-01 23:12:00,
2013-07-01 17:44:00,77.0,40.0,-100.00,NNW,340,5.0,17.0,27,0.00,,,0.00,237.000000,,2013-07-01 23:44:00,
2013-07-01 17:53:00,77.0,40.0,-100.00,NNW,340,5.0,17.0,27,0.00,,,0.00,237.000000,,2013-07-01 23:53:00,
2013-07-01 18:01:00,77.0,40.0,-100.00,NNW,340,5.0,17.0,27,0.00,,,0.00,237.000000,,2013-07-02 00:01:00,
2013-07-01 18:43:00,72.0,37.0,-100.00,ESE,116,9.0,20.0,28,0.00,,,0.00,368.000000,,2013-07-02 00:43:00,
2013-07-01 18:53:00,72.0,37.0,-100.00,ESE,116,9.0,20.0,28,0.00,,,0.00,368.000000,,2013-07-02 00:53:00,
2013-07-01 19:01:00,72.0,37.0,-100.00,ESE,116,9.0,20.0,28,0.00,,,0.00,368.000000,,2013-07-02 01:01:00,
2013-07-01 19:11:00,72.0,37.0,-100.00,ESE,116,9.0,20.0,28,0.00,,,0.00,368.000000,,2013-07-02 01:11:00,
2013-07-01 19:43:00,71.0,41.0,-100.00,SE,140,9.0,14.0,34,0.00,,,0.00,96.000000,,2013-07-02 01:43:00,
2013-07-01 19:53:00,71.0,41.0,-100.00,SE,140,9.0,14.0,34,0.00,,,0.00,96.000000,,2013-07-02 01:53:00,
2013-07-01 20:02:00,71.0,41.0,-100.00,SE,140,9.0,14.0,34,0.00,,,0.00,96.000000,,2013-07-02 02:02:00,
2013-07-01 20:11:00,71.0,41.0,-100.00,SE,140,9.0,14.0,34,0.00,,,0.00,96.000000,,2013-07-02 02:11:00,
2013-07-01 20:12:00,66.0,38.0,-100.00,South,171,12.0,18.0,36,0.00,,,0.00,75.000000,,2013-07-02 02:12:00,
2013-07-01 20:34:00,66.0,38.0,-100.00,South,171,12.0,18.0,36,0.00,,,0.00,75.000000,,2013-07-02 02:34:00,
2013-07-01 20:43:00,66.0,38.0,-100.00,South,171,12.0,18.0,36,0.00,,,0.00,75.000000,,2013-07-02 02:43:00,
2013-07-01 20:53:00,66.0,38.0,-100.00,South,171,12.0,18.0,36,0.00,,,0.00,75.000000,,2013-07-02 02:53:00,
2013-07-01 21:01:00,66.0,38.0,-100.00,South,171,12.0,18.0,36,0.00,,,0.00,75.000000,,2013-07-02 03:01:00,
2013-07-01 21:43:00,65.0,39.0,-100.00,SE,146,9.0,15.0,38,0.00,,,0.00,2.000000,,2013-07-02 03:43:00,
2013-07-01 21:53:00,65.0,39.0,-100.00,SE,146,9.0,15.0,38,0.00,,,0.00,2.000000,,2013-07-02 03:53:00,
2013-07-01 22:02:00,65.0,39.0,-100.00,SE,146,9.0,15.0,38,0.00,,,0.00,2.000000,,2013-07-02 04:02:00,
2013-07-01 22:11:00,65.0,39.0,-100.00,SE,146,9.0,15.0,38,0.00,,,0.00,2.000000,,2013-07-02 04:11:00,
2013-07-01 22:32:00,64.0,40.0,-100.00,SE,132,11.0,20.0,42,0.00,,,0.00,0.000000,,2013-07-02 04:32:00,
2013-07-01 22:42:00,64.0,40.0,-100.00,SE,132,11.0,20.0,42,0.00,,,0.00,0.000000,,2013-07-02 04:42:00,
2013-07-01 22:53:00,64.0,40.0,-100.00,SE,132,11.0,20.0,42,0.00,,,0.00,0.000000,,2013-07-02 04:53:00,
2013-07-01 23:01:00,64.0,40.0,-100.00,SE,132,11.0,20.0,42,0.00,,,0.00,0.000000,,2013-07-02 05:01:00,
2013-07-01 23:11:00,64.0,40.0,-100.00,SE,132,11.0,20.0,42,0.00,,,0.00,0.000000,,2013-07-02 05:11:00,
2013-07-01 23:43:00,61.0,41.0,-100.00,SE,144,12.0,21.0,47,0.00,,,0.00,0.000000,,2013-07-02 05:43:00,
2013-07-01 23:53:00,61.0,41.0,-100.00,SE,144,12.0,21.0,47,0.00,,,0.00,0.000000,,2013-07-02 05:53:00,